createdAt,value
2023-02-14T00:00:22.828Z,102142.97
2023-02-14T00:02:53.585Z,102141.34
2023-02-14T00:05:24.017Z,102141.34
2023-02-14T00:07:55.151Z,102138.87
2023-02-14T00:10:31.529Z,102131.06
2023-02-14T00:13:02.957Z,102131.53
2023-02-14T00:15:30.128Z,102122.41
2023-02-14T00:18:01.562Z,102127.22
2023-02-14T00:20:35.203Z,102132.81
2023-02-14T00:23:04.608Z,102135.75
2023-02-14T00:25:37.839Z,102141.94
2023-02-14T00:28:11.507Z,102150.28
2023-02-14T00:30:42.405Z,102144.31
2023-02-14T00:33:14.494Z,102146.19
2023-02-14T00:35:47.883Z,102150.75
2023-02-14T00:38:18.162Z,102145.63
2023-02-14T00:40:48.407Z,102145.37
2023-02-14T00:43:21.752Z,102135.09
2023-02-14T00:45:50.201Z,102134.28
2023-02-14T00:48:20.128Z,102138.84
2023-02-14T00:50:49.990Z,102137.22
2023-02-14T00:53:20.881Z,102137.22
2023-02-14T00:55:48.041Z,102132.88
2023-02-14T00:58:18.184Z,102130.19
2023-02-14T01:00:51.738Z,102132.31
2023-02-14T01:03:20.277Z,102134.41
2023-02-14T01:05:56.589Z,102124.47
2023-02-14T01:08:27.892Z,102115.84
2023-02-14T01:11:17.385Z,102118.78
2023-02-14T01:13:46.492Z,102117.13
2023-02-14T01:16:21.823Z,102111.75
2023-02-14T01:18:55.558Z,102111.19
2023-02-14T01:21:30.807Z,102106.88
2023-02-14T01:24:01.018Z,102114.94
2023-02-14T01:26:31.940Z,102099.84
2023-02-14T01:29:02.239Z,102100.91
2023-02-14T01:31:39.641Z,102087.47
2023-02-14T01:34:07.163Z,102087.47
2023-02-14T01:36:38.187Z,102085.84
2023-02-14T01:39:08.834Z,102093.31
2023-02-14T01:41:45.010Z,102094.59
2023-02-14T01:44:18.496Z,102092.94
2023-02-14T01:46:48.867Z,102088.63
2023-02-14T01:49:26.055Z,102085.13
2023-02-14T01:52:20.586Z,102085.13
2023-02-14T01:55:02.083Z,102087.22
2023-02-14T01:57:36.260Z,102082.91
2023-02-14T02:00:06.969Z,102085.59
2023-02-14T02:02:37.473Z,102083.97
2023-02-14T02:05:05.603Z,102087.72
2023-02-14T02:07:37.166Z,102080.69
2023-02-14T02:10:11.798Z,102089.81
2023-02-14T02:12:42.755Z,102090.87
2023-02-14T02:15:13.470Z,102088.19
2023-02-14T02:17:59.100Z,102081.19
2023-02-14T02:20:44.236Z,102087.59
2023-02-14T02:23:29.450Z,102091.09
2023-02-14T02:26:48.877Z,102091.59
2023-02-14T02:29:37.416Z,102089.72
2023-02-14T02:32:31.607Z,102084.56
2023-02-14T02:35:16.462Z,102087.50
2023-02-14T02:37:50.581Z,102089.12
2023-02-14T02:40:43.917Z,102085.88
2023-02-14T02:43:51.787Z,102081.56
2023-02-14T02:46:32.657Z,102075.34
2023-02-14T02:49:36.127Z,102080.97
2023-02-14T02:52:21.492Z,102078.53
2023-02-14T02:55:08.769Z,102066.94
2023-02-14T02:57:40.869Z,102061.56
2023-02-14T03:00:15.074Z,102059.94
2023-02-14T03:02:53.575Z,102055.62
2023-02-14T03:05:24.896Z,102056.69
2023-02-14T03:07:56.358Z,102056.69
2023-02-14T03:10:31.491Z,102058.78
2023-02-14T03:13:28.606Z,102054.25
2023-02-14T03:16:01.554Z,102057.16
2023-02-14T03:18:47.389Z,102061.72
2023-02-14T03:21:23.946Z,102059.84
2023-02-14T03:24:17.064Z,102054.94
2023-02-14T03:26:57.635Z,102066.50
2023-02-14T03:29:44.166Z,102065.13
2023-02-14T03:32:42.693Z,102065.13
2023-02-14T03:35:38.304Z,102064.53
2023-02-14T03:38:27.318Z,102065.59
2023-02-14T03:41:00.893Z,102064.19
2023-02-14T03:43:39.613Z,102062.31
2023-02-14T03:46:26.283Z,102064.44
2023-02-14T03:48:57.486Z,102065.50
2023-02-14T03:51:33.953Z,102062.81
2023-02-14T03:54:09.939Z,102066.53
2023-02-14T03:56:47.274Z,102071.91
2023-02-14T03:59:22.824Z,102076.47
2023-02-14T04:01:56.449Z,102076.72
2023-02-14T04:04:28.058Z,102068.66
2023-02-14T04:06:55.849Z,102067.25
2023-02-14T04:09:23.327Z,102068.66
2023-02-14T04:11:53.564Z,102060.81
2023-02-14T04:14:23.721Z,102057.56
2023-02-14T04:16:51.088Z,102055.94
2023-02-14T04:19:18.064Z,102049.72
2023-02-14T04:21:47.575Z,102048.91
2023-02-14T04:24:14.699Z,102058.84
2023-02-14T04:26:48.267Z,102051.84
2023-02-14T04:29:15.364Z,102047.53
2023-02-14T04:31:45.961Z,102046.72
2023-02-14T04:34:16.567Z,102043.22
2023-02-14T04:36:46.940Z,102041.59
2023-02-14T04:39:17.563Z,102041.81
2023-02-14T04:41:44.892Z,102031.66
2023-02-14T04:44:15.164Z,102036.69
2023-02-14T04:46:44.837Z,102036.69
2023-02-14T04:49:12.298Z,102037.53
2023-02-14T04:51:39.601Z,102035.06
2023-02-14T04:54:15.546Z,102032.38
2023-02-14T04:56:42.997Z,102032.63
2023-02-14T04:59:13.201Z,102032.63
2023-02-14T05:01:43.686Z,102030.16
2023-02-14T05:04:19.036Z,102030.16
2023-02-14T05:06:50.239Z,102024.22
2023-02-14T05:09:17.791Z,102024.22
2023-02-14T05:11:50.847Z,102025.28
2023-02-14T05:14:21.370Z,102035.16
2023-02-14T05:16:49.209Z,102028.78
2023-02-14T05:19:19.191Z,102018.25
2023-02-14T05:21:49.186Z,102023.63
2023-02-14T05:24:19.599Z,102022.00
2023-02-14T05:26:50.859Z,102015.00
2023-02-14T05:29:24.534Z,102015.00
2023-02-14T05:31:55.074Z,102022.81
2023-02-14T05:34:28.540Z,102020.37
2023-02-14T05:37:02.270Z,102023.63
2023-02-14T05:39:30.346Z,102024.44
2023-02-14T05:42:06.429Z,102030.66
2023-02-14T05:44:35.947Z,102034.84
2023-02-14T05:47:08.699Z,102031.56
2023-02-14T05:49:39.036Z,102032.19
2023-02-14T05:52:09.189Z,102029.16
2023-02-14T05:54:39.743Z,102029.78
2023-02-14T05:57:12.802Z,102033.19
2023-02-14T06:02:55.286Z,102025.12
2023-02-14T06:05:29.946Z,102033.78
2023-02-14T06:08:02.572Z,102038.69
2023-02-14T06:10:29.883Z,102041.72
2023-02-14T06:12:57.368Z,102051.19
2023-02-14T06:15:30.848Z,102054.47
2023-02-14T06:18:04.272Z,102050.72
2023-02-14T06:20:35.569Z,102055.62
2023-02-14T06:23:08.805Z,102055.12
2023-02-14T06:25:39.908Z,102060.50
2023-02-14T06:28:09.676Z,102060.50
2023-02-14T06:30:36.849Z,102065.41
2023-02-14T06:33:04.108Z,102059.84
2023-02-14T06:35:34.268Z,102070.31
2023-02-14T06:38:07.856Z,102061.22
2023-02-14T06:40:41.230Z,102067.37
2023-02-14T06:43:17.682Z,102065.56
2023-02-14T06:45:49.011Z,102069.84
2023-02-14T06:48:19.039Z,102071.50
2023-02-14T06:50:51.947Z,102071.03
2023-02-14T06:53:27.418Z,102064.84
2023-02-14T06:55:59.838Z,102078.03
2023-02-14T06:58:27.788Z,102078.63
2023-02-14T07:01:03.454Z,102063.06
2023-02-14T07:03:36.473Z,102064.69
2023-02-14T07:06:12.713Z,102062.59
2023-02-14T07:08:41.038Z,102072.88
2023-02-14T07:11:13.622Z,102079.88
2023-02-14T07:13:43.737Z,102068.66
2023-02-14T07:16:14.572Z,102076.25
2023-02-14T07:18:45.074Z,102074.13
2023-02-14T07:21:14.659Z,102077.97
2023-02-14T07:23:44.392Z,102075.03
2023-02-14T07:26:18.002Z,102077.03
2023-02-14T07:28:49.503Z,102078.19
2023-02-14T07:31:21.047Z,102073.38
2023-02-14T07:33:47.919Z,102071.03
2023-02-14T07:36:19.908Z,102067.87
2023-02-14T07:38:47.004Z,102070.31
2023-02-14T07:41:16.390Z,102071.47
2023-02-14T07:43:47.164Z,102075.56
2023-02-14T07:46:13.998Z,102070.78
2023-02-14T07:48:46.821Z,102061.19
2023-02-14T07:51:25.213Z,102071.09
2023-02-14T07:53:52.627Z,102067.94
2023-02-14T07:56:19.915Z,102072.25
2023-02-14T07:58:47.043Z,102074.94
2023-02-14T08:01:18.834Z,102070.19
2023-02-14T08:03:49.299Z,102072.62
2023-02-14T08:06:20.296Z,102084.78
2023-02-14T08:08:48.128Z,102079.16
2023-02-14T08:11:18.150Z,102079.72
2023-02-14T08:13:47.686Z,102079.47
2023-02-14T08:16:17.650Z,102080.06
2023-02-14T08:18:47.806Z,102086.00
2023-02-14T08:21:21.353Z,102083.91
2023-02-14T08:23:51.502Z,102085.53
2023-02-14T08:26:20.978Z,102089.62
2023-02-14T08:28:50.416Z,102091.00
2023-02-14T08:31:35.243Z,102098.59
2023-02-14T08:34:04.600Z,102093.22
2023-02-14T08:36:35.296Z,102090.03
2023-02-14T08:39:08.051Z,102088.97
2023-02-14T08:41:40.375Z,102082.31
2023-02-14T08:44:10.281Z,102098.78
2023-02-14T08:46:43.649Z,102101.69
2023-02-14T08:49:10.810Z,102095.03
2023-02-14T08:51:40.652Z,102102.03
2023-02-14T08:54:07.513Z,102088.59
2023-02-14T08:56:34.380Z,102085.91
2023-02-14T08:59:01.284Z,102087.56
2023-02-14T09:01:31.924Z,102089.66
2023-02-14T09:04:01.387Z,102103.69
2023-02-14T09:06:30.949Z,102092.09
2023-02-14T09:09:03.445Z,102087.56
2023-02-14T09:11:33.435Z,102093.75
2023-02-14T09:14:00.171Z,102093.50
2023-02-14T09:16:30.975Z,102092.41
2023-02-14T09:19:00.449Z,102100.28
2023-02-14T09:21:30.860Z,102094.87
2023-02-14T09:24:01.500Z,102098.37
2023-02-14T09:26:31.517Z,102098.13
2023-02-14T09:29:01.444Z,102097.09
2023-02-14T09:31:34.466Z,102105.97
2023-02-14T09:34:06.733Z,102100.59
2023-02-14T09:36:33.609Z,102093.09
2023-02-14T09:39:03.378Z,102096.84
2023-02-14T09:41:46.390Z,102098.47
2023-02-14T09:44:45.213Z,102096.38
2023-02-14T09:47:24.199Z,102106.06
2023-02-14T09:49:52.600Z,102102.56
2023-02-14T09:52:27.779Z,102095.84
2023-02-14T09:55:13.411Z,102100.69
2023-02-14T09:58:02.820Z,102103.38
2023-02-14T10:00:41.468Z,102099.06
2023-02-14T10:03:35.183Z,102096.38
2023-02-14T10:06:29.138Z,102087.50
2023-02-14T10:09:26.478Z,102092.03
2023-02-14T10:11:59.464Z,102093.69
2023-02-14T10:14:32.386Z,102098.00
2023-02-14T10:17:28.981Z,102081.84
2023-02-14T10:20:04.766Z,102095.03
2023-02-14T10:22:46.838Z,102083.47
2023-02-14T10:25:27.425Z,102087.78
2023-02-14T10:28:01.524Z,102094.81
2023-02-14T10:30:39.734Z,102079.72
2023-02-14T10:33:26.727Z,102085.09
2023-02-14T10:36:05.848Z,102073.53
2023-02-14T10:38:55.399Z,102071.66
2023-02-14T10:41:50.086Z,102071.09
2023-02-14T10:44:56.750Z,102065.72
2023-02-14T10:47:38.450Z,102063.84
2023-02-14T10:50:16.706Z,102057.37
2023-02-14T10:52:55.958Z,102056.56
2023-02-14T10:55:50.945Z,102049.31
2023-02-14T10:58:26.252Z,102053.06
2023-02-14T11:01:03.000Z,102051.19
2023-02-14T11:03:44.313Z,102049.56
2023-02-14T11:06:16.584Z,102044.19
2023-02-14T11:08:53.787Z,102048.50
2023-02-14T11:11:35.280Z,102048.50
2023-02-14T11:14:36.718Z,102038.81
2023-02-14T11:17:30.149Z,102039.06
2023-02-14T11:20:02.049Z,102038.81
2023-02-14T11:22:37.023Z,102036.38
2023-02-14T11:25:26.288Z,102032.28
2023-02-14T11:28:08.437Z,102027.97
2023-02-14T11:30:46.930Z,102029.84
2023-02-14T11:33:43.283Z,102026.31
2023-02-14T11:36:20.297Z,102020.37
2023-02-14T11:39:28.594Z,102028.47
2023-02-14T11:42:05.592Z,102028.72
2023-02-14T11:44:36.665Z,102025.75
2023-02-14T11:47:27.548Z,102013.37
2023-02-14T11:50:09.870Z,102019.00
2023-02-14T11:52:58.955Z,102016.31
2023-02-14T11:55:39.802Z,102011.41
2023-02-14T11:58:09.631Z,102024.62
2023-02-14T12:00:39.844Z,102002.03
2023-02-14T12:03:09.783Z,102013.88
2023-02-14T12:05:49.525Z,102003.66
2023-02-14T12:08:28.011Z,102008.81
2023-02-14T12:11:18.413Z,102005.31
2023-02-14T12:13:56.640Z,102005.88
2023-02-14T12:16:39.107Z,102012.87
2023-02-14T12:19:24.478Z,102002.13
2023-02-14T12:22:03.033Z,102001.31
2023-02-14T12:24:38.381Z,102007.50
2023-02-14T12:27:18.924Z,101986.81
2023-02-14T12:29:59.785Z,101993.00
2023-02-14T12:32:29.774Z,101995.69
2023-02-14T12:35:28.302Z,102003.75
2023-02-14T12:38:34.124Z,102000.50
2023-02-14T12:41:22.162Z,101989.72
2023-02-14T12:43:53.476Z,101990.81
2023-02-14T12:47:01.262Z,102000.97
2023-02-14T12:49:54.750Z,101993.97
2023-02-14T12:52:30.377Z,101990.22
2023-02-14T12:55:42.390Z,101983.22
2023-02-14T12:58:18.290Z,101975.94
2023-02-14T13:01:09.780Z,101967.06
2023-02-14T13:04:07.489Z,101980.78
2023-02-14T13:06:39.925Z,101974.59
2023-02-14T13:09:16.011Z,101985.84
2023-02-14T13:12:27.984Z,101975.06
2023-02-14T13:15:38.001Z,101982.56
2023-02-14T13:18:31.027Z,101985.84
2023-02-14T13:21:04.891Z,101993.41
2023-02-14T13:23:45.092Z,101993.97
2023-02-14T13:26:20.621Z,101984.84
2023-02-14T13:28:56.899Z,101985.41
2023-02-14T13:31:24.124Z,101969.28
2023-02-14T13:34:02.029Z,101984.34
2023-02-14T13:36:36.071Z,101987.03
2023-02-14T13:39:04.611Z,101985.97
2023-02-14T13:41:32.309Z,101983.06
2023-02-14T13:44:02.937Z,101981.19
2023-02-14T13:46:36.219Z,101976.34
2023-02-14T13:49:24.317Z,101979.88
2023-02-14T13:51:59.557Z,101975.31
2023-02-14T13:54:46.716Z,101978.56
2023-02-14T13:57:39.050Z,101982.87
2023-02-14T14:00:40.042Z,101984.53
2023-02-14T14:03:27.842Z,101980.75
2023-02-14T14:06:08.904Z,101978.06
2023-02-14T14:08:50.549Z,101984.03
2023-02-14T14:11:26.089Z,101978.66
2023-02-14T14:14:04.149Z,101973.28
2023-02-14T14:16:36.168Z,101975.13
2023-02-14T14:19:21.229Z,101975.97
2023-02-14T14:22:07.155Z,101975.38
2023-02-14T14:24:37.460Z,101971.28
2023-02-14T14:27:07.684Z,101967.00
2023-02-14T14:29:42.979Z,101963.50
2023-02-14T14:32:18.398Z,101973.19
2023-02-14T14:34:56.093Z,101977.50
2023-02-14T14:37:30.811Z,101972.09
2023-02-14T14:40:00.974Z,101965.69
2023-02-14T14:42:38.031Z,101969.19
2023-02-14T14:45:09.474Z,101965.91
2023-02-14T14:47:42.887Z,101970.50
2023-02-14T14:50:24.446Z,101963.16
2023-02-14T14:53:00.321Z,101957.12
2023-02-14T14:55:33.152Z,101956.56
2023-02-14T14:58:24.862Z,101960.06
2023-02-14T15:00:51.996Z,101952.56
2023-02-14T15:03:22.944Z,101955.84
2023-02-14T15:05:50.848Z,101950.19
2023-02-14T15:08:22.282Z,101961.75
2023-02-14T15:11:11.951Z,101955.34
2023-02-14T15:13:46.545Z,101956.38
2023-02-14T15:16:18.638Z,101957.22
2023-02-14T15:18:46.269Z,101943.53
2023-02-14T15:21:16.821Z,101949.97
2023-02-14T15:23:45.874Z,101955.34
2023-02-14T15:26:29.842Z,101959.06
2023-02-14T15:29:05.698Z,101958.25
2023-02-14T15:31:40.784Z,101952.88
2023-02-14T15:34:12.385Z,101956.63
2023-02-14T15:36:45.076Z,101959.59
2023-02-14T15:39:17.068Z,101970.34
2023-02-14T15:41:47.059Z,101963.31
2023-02-14T15:44:22.463Z,101961.69
2023-02-14T15:47:03.047Z,101963.84
2023-02-14T15:49:39.970Z,101972.72
2023-02-14T15:52:16.007Z,101967.56
2023-02-14T15:54:45.826Z,101965.94
2023-02-14T15:57:26.274Z,101960.81
2023-02-14T15:59:53.584Z,101965.37
2023-02-14T16:02:37.163Z,101961.03
2023-02-14T16:05:20.474Z,101973.94
2023-02-14T16:07:56.272Z,101966.94
2023-02-14T16:10:33.203Z,101966.94
2023-02-14T16:13:14.890Z,101969.03
2023-02-14T16:15:59.981Z,101974.09
2023-02-14T16:18:40.511Z,101974.00
2023-02-14T16:21:21.194Z,101974.22
2023-02-14T16:24:08.504Z,101981.25
2023-02-14T16:26:42.836Z,101988.53
2023-02-14T16:29:15.196Z,101983.69
2023-02-14T16:32:14.649Z,101985.56
2023-02-14T16:35:29.724Z,101985.56
2023-02-14T16:37:59.563Z,101993.56
2023-02-14T16:40:28.154Z,102001.62
2023-02-14T16:42:54.912Z,102002.44
2023-02-14T16:45:27.659Z,102002.19
2023-02-14T16:47:59.003Z,102006.75
2023-02-14T16:50:28.896Z,102014.81
2023-02-14T16:52:58.695Z,102012.94
2023-02-14T16:55:29.271Z,102004.88
2023-02-14T16:57:57.754Z,102008.97
2023-02-14T17:00:24.562Z,102013.53
2023-02-14T17:02:51.338Z,102019.72
2023-02-14T17:05:18.460Z,102011.66
2023-02-14T17:07:48.926Z,102009.78
2023-02-14T17:10:18.409Z,102020.53
2023-02-14T17:12:49.765Z,102008.16
2023-02-14T17:15:21.900Z,102018.91
2023-02-14T17:17:50.183Z,102005.47
2023-02-14T17:20:17.762Z,102012.72
2023-02-14T17:22:49.661Z,102021.00
2023-02-14T17:25:22.701Z,102022.63
2023-02-14T17:27:50.347Z,102012.94
2023-02-14T17:30:18.538Z,102019.38
2023-02-14T17:32:50.484Z,102023.13
2023-02-14T17:38:40.734Z,102026.03
2023-02-14T17:41:45.378Z,102030.63
2023-02-14T17:44:12.807Z,102037.53
2023-02-14T17:46:50.294Z,102048.19
2023-02-14T17:49:59.790Z,102038.97
2023-02-14T17:52:30.339Z,102033.81
2023-02-14T17:55:06.005Z,102023.88
2023-02-14T17:57:39.441Z,102023.88
2023-02-14T18:00:12.207Z,102025.03
2023-02-14T18:05:29.066Z,102021.31
2023-02-14T18:08:11.516Z,102020.84
2023-02-14T18:10:42.747Z,102018.16
2023-02-14T18:13:24.145Z,102023.28
2023-02-14T18:15:54.140Z,102023.03
2023-02-14T18:18:30.931Z,102017.44
2023-02-14T18:21:03.174Z,102023.34
2023-02-14T18:23:34.768Z,102024.16
2023-02-14T18:26:11.285Z,102023.13
2023-02-14T18:32:07.179Z,102014.56
2023-02-14T18:34:52.263Z,102007.56
2023-02-14T18:37:38.457Z,102012.72
2023-02-14T18:40:22.368Z,102011.88
2023-02-14T18:43:12.493Z,102007.81
2023-02-14T18:46:12.292Z,102013.19
2023-02-14T18:48:59.253Z,102017.75
2023-02-14T18:51:53.459Z,102012.38
2023-02-14T18:54:37.895Z,102011.53
2023-02-14T18:57:13.112Z,102011.53
2023-02-14T18:59:40.281Z,102006.16
2023-02-14T19:02:16.870Z,102009.69
2023-02-14T19:04:53.897Z,102011.53
2023-02-14T19:07:40.070Z,102007.81
2023-02-14T19:10:27.914Z,102007.00
2023-02-14T19:13:34.993Z,102007.56
2023-02-14T19:45:01.793Z,101998.63
2023-02-14T20:01:00.015Z,101997.88
2023-02-14T20:07:29.897Z,102001.38
2023-02-14T20:10:21.659Z,101998.69
2023-02-14T20:13:03.322Z,102008.97
2023-02-14T20:16:23.427Z,102004.72
2023-02-14T20:19:25.922Z,101999.69
2023-02-14T20:22:07.854Z,102000.81
2023-02-14T20:25:08.191Z,101991.44
2023-02-14T20:27:41.904Z,101997.38
2023-02-14T20:30:25.260Z,101987.75
2023-02-14T20:33:15.646Z,101997.22
2023-02-14T20:36:09.603Z,101996.97
2023-02-14T20:39:18.326Z,101994.59
2023-02-14T20:42:19.509Z,101988.75
2023-02-14T20:48:55.960Z,101995.84
2023-02-14T20:51:35.973Z,101997.22
2023-02-14T20:54:17.974Z,102002.91
2023-02-14T20:57:04.932Z,101994.59
2023-02-14T21:06:33.314Z,101994.44
2023-02-14T21:09:56.027Z,101984.50
2023-02-14T21:12:41.346Z,101987.75
2023-02-14T21:15:18.796Z,101984.81
2023-02-14T21:18:00.646Z,101991.59
2023-02-14T21:21:20.697Z,101991.81
2023-02-14T21:24:06.751Z,101987.28
2023-02-14T21:26:40.343Z,101995.91
2023-02-14T21:29:30.752Z,101997.53
2023-02-14T21:32:09.204Z,101991.59
2023-02-14T21:34:57.174Z,101991.81
2023-02-14T21:37:29.252Z,101998.03
2023-02-14T21:40:19.645Z,101991.81
2023-02-14T21:43:03.374Z,101991.25
2023-02-14T21:45:53.258Z,101990.69
2023-02-14T21:48:28.763Z,101982.87
2023-02-14T21:51:11.726Z,101987.69
2023-02-14T21:53:57.303Z,101980.09
2023-02-14T21:57:07.655Z,101980.09
2023-02-14T21:59:58.566Z,101979.50
2023-02-14T22:02:39.286Z,101978.38
2023-02-14T22:05:33.691Z,101975.69
2023-02-14T22:08:15.944Z,101975.13
2023-02-14T22:14:02.442Z,101978.31
2023-02-14T22:16:43.206Z,101975.03
2023-02-14T22:19:15.948Z,101975.28
2023-02-14T22:21:44.707Z,101987.94
2023-02-14T22:24:33.676Z,101982.56
2023-02-14T22:27:03.721Z,101983.03
2023-02-14T22:29:56.759Z,101986.78
2023-02-14T22:32:46.786Z,101985.41
2023-02-14T22:35:35.112Z,101981.63
2023-02-14T22:38:17.703Z,101976.53
2023-02-14T22:41:06.558Z,101978.66
2023-02-14T22:43:43.549Z,101977.00
2023-02-14T22:46:22.566Z,101979.94
2023-02-14T22:49:08.466Z,101984.53
2023-02-14T22:52:05.355Z,101974.25
2023-02-14T22:54:41.670Z,101974.25
2023-02-14T22:57:24.948Z,101982.31
2023-02-14T23:00:05.155Z,101980.91
2023-02-14T23:02:54.980Z,101973.66
2023-02-14T23:05:26.164Z,101970.41
2023-02-14T23:08:17.258Z,101973.91
2023-02-14T23:11:09.130Z,101974.41
2023-02-14T23:13:38.913Z,101976.28
2023-02-14T23:16:10.680Z,101970.09
2023-02-14T23:18:56.550Z,101971.16
2023-02-14T23:21:36.465Z,101966.00
2023-02-14T23:24:46.604Z,101965.19
2023-02-14T23:27:30.246Z,101960.06
2023-02-14T23:30:21.835Z,101954.69
2023-02-14T23:33:03.756Z,101954.69
2023-02-14T23:35:37.617Z,101952.22
2023-02-14T23:38:09.319Z,101951.41
2023-02-14T23:40:37.511Z,101946.03
2023-02-14T23:43:11.871Z,101955.19
2023-02-14T23:45:51.693Z,101953.56
2023-02-14T23:48:23.190Z,101946.56
2023-02-14T23:50:52.898Z,101950.28
2023-02-14T23:53:24.101Z,101943.28
2023-02-14T23:56:10.922Z,101944.09
2023-02-14T23:58:40.205Z,101940.03
